sensor_id;sensor_type;location;lat;lon;timestamp;pressure;altitude;pressure_sealevel;temperature;humidity
33286;BME280;19656;50.096;20.014;2023-03-22T00:01:20;98983.11;;;10.54;68.82
33286;BME280;19656;50.096;20.014;2023-03-22T00:06:24;98978.70;;;10.45;68.85
33286;BME280;19656;50.096;20.014;2023-03-22T00:11:28;98975.00;;;10.38;68.99
33286;BME280;19656;50.096;20.014;2023-03-22T00:16:32;98970.60;;;10.32;69.13
33286;BME280;19656;50.096;20.014;2023-03-22T00:21:36;98971.75;;;10.28;69.16
33286;BME280;19656;50.096;20.014;2023-03-22T00:26:39;98966.02;;;10.23;69.18
33286;BME280;19656;50.096;20.014;2023-03-22T00:31:43;98962.97;;;10.21;69.28
33286;BME280;19656;50.096;20.014;2023-03-22T00:36:47;98958.39;;;10.20;69.23
33286;BME280;19656;50.096;20.014;2023-03-22T00:41:50;98959.84;;;10.20;69.24
33286;BME280;19656;50.096;20.014;2023-03-22T00:46:54;98948.05;;;10.18;69.38
33286;BME280;19656;50.096;20.014;2023-03-22T00:51:57;98949.44;;;10.13;69.38
33286;BME280;19656;50.096;20.014;2023-03-22T00:57:03;98945.54;;;10.01;69.51
33286;BME280;19656;50.096;20.014;2023-03-22T01:02:10;98936.29;;;9.96;69.61
33286;BME280;19656;50.096;20.014;2023-03-22T01:07:17;98937.60;;;9.83;69.61
33286;BME280;19656;50.096;20.014;2023-03-22T01:12:23;98940.08;;;9.75;70.02
33286;BME280;19656;50.096;20.014;2023-03-22T01:17:27;98937.94;;;9.78;70.07
33286;BME280;19656;50.096;20.014;2023-03-22T01:22:30;98928.43;;;9.80;70.12
33286;BME280;19656;50.096;20.014;2023-03-22T01:27:34;98926.38;;;9.79;70.22
33286;BME280;19656;50.096;20.014;2023-03-22T01:32:38;98925.78;;;9.85;70.17
33286;BME280;19656;50.096;20.014;2023-03-22T01:37:42;98920.46;;;9.83;70.22
33286;BME280;19656;50.096;20.014;2023-03-22T01:42:46;98911.43;;;9.77;70.24
33286;BME280;19656;50.096;20.014;2023-03-22T01:47:57;98910.09;;;9.69;70.32
33286;BME280;19656;50.096;20.014;2023-03-22T01:53:02;98897.20;;;9.66;70.37
33286;BME280;19656;50.096;20.014;2023-03-22T01:58:09;98890.05;;;9.67;70.27
33286;BME280;19656;50.096;20.014;2023-03-22T02:03:52;98887.70;;;9.65;70.10
33286;BME280;19656;50.096;20.014;2023-03-22T02:08:58;98876.92;;;9.64;69.77
33286;BME280;19656;50.096;20.014;2023-03-22T02:14:24;98867.02;;;9.58;69.70
33286;BME280;19656;50.096;20.014;2023-03-22T02:20:18;98863.69;;;9.55;70.00
33286;BME280;19656;50.096;20.014;2023-03-22T02:47:12;98848.90;;;9.15;69.87
33286;BME280;19656;50.096;20.014;2023-03-22T02:52:26;98848.85;;;9.13;69.96
33286;BME280;19656;50.096;20.014;2023-03-22T02:57:41;98848.72;;;9.12;69.49
33286;BME280;19656;50.096;20.014;2023-03-22T03:02:54;98845.80;;;9.05;69.33
33286;BME280;19656;50.096;20.014;2023-03-22T03:08:01;98848.68;;;8.95;69.33
33286;BME280;19656;50.096;20.014;2023-03-22T03:13:05;98846.17;;;8.86;69.28
33286;BME280;19656;50.096;20.014;2023-03-22T03:18:22;98851.80;;;8.75;69.30
33286;BME280;19656;50.096;20.014;2023-03-22T03:23:46;98858.25;;;8.64;69.22
33286;BME280;19656;50.096;20.014;2023-03-22T03:34:19;98863.59;;;8.38;69.85
33286;BME280;19656;50.096;20.014;2023-03-22T03:39:27;98869.39;;;8.32;70.20
33286;BME280;19656;50.096;20.014;2023-03-22T03:44:34;98868.66;;;8.29;70.62
33286;BME280;19656;50.096;20.014;2023-03-22T03:49:39;98869.39;;;8.32;71.06
33286;BME280;19656;50.096;20.014;2023-03-22T03:54:42;98866.25;;;8.34;71.31
33286;BME280;19656;50.096;20.014;2023-03-22T03:59:50;98865.94;;;8.37;71.81
33286;BME280;19656;50.096;20.014;2023-03-22T04:05:04;98877.25;;;8.37;71.96
33286;BME280;19656;50.096;20.014;2023-03-22T04:10:09;98879.61;;;8.36;72.18
33286;BME280;19656;50.096;20.014;2023-03-22T04:15:12;98881.53;;;8.33;72.40
33286;BME280;19656;50.096;20.014;2023-03-22T04:20:17;98879.85;;;8.31;72.54
33286;BME280;19656;50.096;20.014;2023-03-22T04:25:21;98874.73;;;8.35;72.32
33286;BME280;19656;50.096;20.014;2023-03-22T04:30:41;98875.44;;;8.38;72.16
33286;BME280;19656;50.096;20.014;2023-03-22T04:36:09;98876.39;;;8.37;72.23
33286;BME280;19656;50.096;20.014;2023-03-22T04:41:24;98880.02;;;8.38;72.43
33286;BME280;19656;50.096;20.014;2023-03-22T04:46:33;98888.63;;;8.39;72.24
33286;BME280;19656;50.096;20.014;2023-03-22T04:51:38;98887.15;;;8.37;72.27
33286;BME280;19656;50.096;20.014;2023-03-22T04:56:56;98890.23;;;8.35;71.98
33286;BME280;19656;50.096;20.014;2023-03-22T05:02:02;98894.85;;;8.28;71.68
33286;BME280;19656;50.096;20.014;2023-03-22T05:07:12;98889.95;;;8.31;71.77
33286;BME280;19656;50.096;20.014;2023-03-22T05:12:26;98888.38;;;8.30;71.57
33286;BME280;19656;50.096;20.014;2023-03-22T05:17:37;98894.58;;;8.27;71.45
33286;BME280;19656;50.096;20.014;2023-03-22T05:22:40;98895.89;;;8.23;71.47
33286;BME280;19656;50.096;20.014;2023-03-22T05:27:45;98905.16;;;8.21;71.48
33286;BME280;19656;50.096;20.014;2023-03-22T05:33:09;98908.01;;;8.17;71.68
33286;BME280;19656;50.096;20.014;2023-03-22T05:38:17;98911.80;;;8.16;71.91
33286;BME280;19656;50.096;20.014;2023-03-22T05:43:25;98909.70;;;8.15;72.01
33286;BME280;19656;50.096;20.014;2023-03-22T05:48:28;98913.54;;;8.20;72.21
33286;BME280;19656;50.096;20.014;2023-03-22T05:53:33;98902.69;;;8.31;72.34
33286;BME280;19656;50.096;20.014;2023-03-22T05:59:00;98902.45;;;8.52;72.89
33286;BME280;19656;50.096;20.014;2023-03-22T06:04:05;98900.90;;;8.66;72.32
33286;BME280;19656;50.096;20.014;2023-03-22T06:09:18;98907.98;;;8.72;72.28
33286;BME280;19656;50.096;20.014;2023-03-22T06:14:25;98909.81;;;8.78;72.22
33286;BME280;19656;50.096;20.014;2023-03-22T06:19:51;98909.26;;;8.82;72.07
33286;BME280;19656;50.096;20.014;2023-03-22T06:24:56;98912.92;;;8.89;72.38
33286;BME280;19656;50.096;20.014;2023-03-22T06:30:07;98915.66;;;8.99;72.20
33286;BME280;19656;50.096;20.014;2023-03-22T06:35:21;98910.84;;;9.09;71.77
33286;BME280;19656;50.096;20.014;2023-03-22T06:40:26;98915.67;;;9.20;72.11
33286;BME280;19656;50.096;20.014;2023-03-22T06:45:30;98912.80;;;9.36;71.77
33286;BME280;19656;50.096;20.014;2023-03-22T06:50:36;98910.23;;;9.43;71.44
33286;BME280;19656;50.096;20.014;2023-03-22T06:55:53;98906.86;;;9.44;71.56
33286;BME280;19656;50.096;20.014;2023-03-22T07:00:58;98907.58;;;9.50;71.41
33286;BME280;19656;50.096;20.014;2023-03-22T07:06:05;98910.40;;;9.56;71.45
33286;BME280;19656;50.096;20.014;2023-03-22T07:11:11;98912.05;;;9.64;71.18
33286;BME280;19656;50.096;20.014;2023-03-22T07:16:16;98905.41;;;9.74;71.16
33286;BME280;19656;50.096;20.014;2023-03-22T07:21:34;98903.68;;;9.85;71.15
33286;BME280;19656;50.096;20.014;2023-03-22T07:26:40;98910.86;;;9.86;71.04
33286;BME280;19656;50.096;20.014;2023-03-22T07:31:45;98909.95;;;9.89;70.97
33286;BME280;19656;50.096;20.014;2023-03-22T07:36:58;98908.33;;;9.95;71.15
33286;BME280;19656;50.096;20.014;2023-03-22T07:42:02;98902.96;;;10.05;71.08
33286;BME280;19656;50.096;20.014;2023-03-22T07:47:24;98894.50;;;10.13;71.18
33286;BME280;19656;50.096;20.014;2023-03-22T07:53:10;98888.52;;;10.30;70.69
33286;BME280;19656;50.096;20.014;2023-03-22T07:58:13;98900.48;;;10.42;70.88
33286;BME280;19656;50.096;20.014;2023-03-22T08:03:17;98900.40;;;10.63;70.81
33286;BME280;19656;50.096;20.014;2023-03-22T08:08:34;98891.85;;;10.85;70.36
33286;BME280;19656;50.096;20.014;2023-03-22T08:13:39;98890.39;;;11.02;69.72
33286;BME280;19656;50.096;20.014;2023-03-22T08:18:44;98885.81;;;11.17;68.94
33286;BME280;19656;50.096;20.014;2023-03-22T08:23:48;98879.75;;;11.26;68.28
33286;BME280;19656;50.096;20.014;2023-03-22T08:29:30;98880.61;;;11.31;67.89
33286;BME280;19656;50.096;20.014;2023-03-22T08:34:38;98874.02;;;11.47;67.74
33286;BME280;19656;50.096;20.014;2023-03-22T08:39:42;98876.95;;;11.74;67.54
33286;BME280;19656;50.096;20.014;2023-03-22T08:44:59;98871.84;;;11.92;66.29
33286;BME280;19656;50.096;20.014;2023-03-22T08:50:05;98866.60;;;12.08;65.56
33286;BME280;19656;50.096;20.014;2023-03-22T08:55:15;98868.73;;;12.26;64.87
33286;BME280;19656;50.096;20.014;2023-03-22T09:00:38;98866.44;;;12.35;63.47
33286;BME280;19656;50.096;20.014;2023-03-22T09:06:00;98869.38;;;12.44;62.65
33286;BME280;19656;50.096;20.014;2023-03-22T09:11:10;98862.88;;;12.57;61.90
33286;BME280;19656;50.096;20.014;2023-03-22T09:16:15;98863.48;;;12.78;61.05
33286;BME280;19656;50.096;20.014;2023-03-22T09:21:19;98856.95;;;12.92;60.21
33286;BME280;19656;50.096;20.014;2023-03-22T09:26:35;98854.75;;;13.00;59.89
33286;BME280;19656;50.096;20.014;2023-03-22T09:31:40;98844.52;;;13.03;60.10
33286;BME280;19656;50.096;20.014;2023-03-22T09:36:50;98831.06;;;13.07;59.65
33286;BME280;19656;50.096;20.014;2023-03-22T09:42:00;98823.89;;;13.08;59.31
33286;BME280;19656;50.096;20.014;2023-03-22T09:47:09;98822.30;;;13.07;58.26
33286;BME280;19656;50.096;20.014;2023-03-22T09:52:16;98817.11;;;13.08;57.88
33286;BME280;19656;50.096;20.014;2023-03-22T09:57:34;98813.86;;;13.23;58.04
33286;BME280;19656;50.096;20.014;2023-03-22T10:08:17;98802.44;;;13.64;58.05
33286;BME280;19656;50.096;20.014;2023-03-22T10:13:55;98799.39;;;13.83;57.09
33286;BME280;19656;50.096;20.014;2023-03-22T10:19:40;98793.15;;;14.10;56.99
33286;BME280;19656;50.096;20.014;2023-03-22T10:24:48;98789.48;;;14.28;55.86
33286;BME280;19656;50.096;20.014;2023-03-22T10:30:06;98788.62;;;14.41;55.57
33286;BME280;19656;50.096;20.014;2023-03-22T10:35:13;98788.75;;;14.51;54.80
33286;BME280;19656;50.096;20.014;2023-03-22T10:40:20;98781.20;;;14.58;54.66
33286;BME280;19656;50.096;20.014;2023-03-22T10:45:27;98780.89;;;14.68;55.01
33286;BME280;19656;50.096;20.014;2023-03-22T10:50:33;98775.84;;;14.83;55.07
33286;BME280;19656;50.096;20.014;2023-03-22T10:55:39;98763.99;;;14.95;55.27
33286;BME280;19656;50.096;20.014;2023-03-22T11:00:45;98759.80;;;15.13;55.31
33286;BME280;19656;50.096;20.014;2023-03-22T11:11:22;98746.65;;;15.35;54.59
33286;BME280;19656;50.096;20.014;2023-03-22T11:16:28;98741.83;;;15.62;53.80
33286;BME280;19656;50.096;20.014;2023-03-22T11:21:33;98731.14;;;15.80;52.88
33286;BME280;19656;50.096;20.014;2023-03-22T11:26:37;98726.88;;;15.93;51.37
33286;BME280;19656;50.096;20.014;2023-03-22T11:31:51;98720.73;;;16.16;50.95
33286;BME280;19656;50.096;20.014;2023-03-22T11:37:00;98722.13;;;16.40;49.95
33286;BME280;19656;50.096;20.014;2023-03-22T11:42:05;98716.84;;;16.51;49.93
33286;BME280;19656;50.096;20.014;2023-03-22T11:47:11;98710.27;;;16.64;49.28
33286;BME280;19656;50.096;20.014;2023-03-22T11:52:25;98701.39;;;16.71;48.82
33286;BME280;19656;50.096;20.014;2023-03-22T11:57:32;98700.63;;;16.85;49.73
33286;BME280;19656;50.096;20.014;2023-03-22T12:02:45;98695.14;;;16.96;48.44
33286;BME280;19656;50.096;20.014;2023-03-22T12:07:58;98694.25;;;17.01;47.73
33286;BME280;19656;50.096;20.014;2023-03-22T12:13:11;98687.52;;;17.20;47.56
33286;BME280;19656;50.096;20.014;2023-03-22T12:23:32;98674.91;;;17.61;47.39
33286;BME280;19656;50.096;20.014;2023-03-22T12:28:42;98671.36;;;17.76;46.98
33286;BME280;19656;50.096;20.014;2023-03-22T12:33:53;98669.19;;;17.92;46.08
33286;BME280;19656;50.096;20.014;2023-03-22T12:38:59;98661.14;;;18.08;46.07
33286;BME280;19656;50.096;20.014;2023-03-22T12:44:16;98650.48;;;18.33;45.27
33286;BME280;19656;50.096;20.014;2023-03-22T12:54:35;98645.88;;;18.66;44.75
33286;BME280;19656;50.096;20.014;2023-03-22T12:59:42;98638.59;;;19.02;44.32
33286;BME280;19656;50.096;20.014;2023-03-22T13:05:01;98631.40;;;19.35;43.50
33286;BME280;19656;50.096;20.014;2023-03-22T13:15:34;98626.70;;;19.25;42.90
33286;BME280;19656;50.096;20.014;2023-03-22T13:21:09;98622.27;;;19.24;43.48
33286;BME280;19656;50.096;20.014;2023-03-22T13:26:14;98612.90;;;19.17;43.34
33286;BME280;19656;50.096;20.014;2023-03-22T13:31:35;98605.04;;;19.51;42.80
33286;BME280;19656;50.096;20.014;2023-03-22T13:36:48;98601.39;;;20.02;41.53
33286;BME280;19656;50.096;20.014;2023-03-22T13:42:07;98591.43;;;20.32;40.57
33286;BME280;19656;50.096;20.014;2023-03-22T13:47:44;98584.08;;;20.56;40.39
33286;BME280;19656;50.096;20.014;2023-03-22T13:53:18;98573.86;;;20.96;38.91
33286;BME280;19656;50.096;20.014;2023-03-22T13:58:34;98570.50;;;21.04;37.91
33286;BME280;19656;50.096;20.014;2023-03-22T14:03:40;98564.82;;;20.87;37.91
33286;BME280;19656;50.096;20.014;2023-03-22T14:08:46;98555.39;;;20.58;38.15
33286;BME280;19656;50.096;20.014;2023-03-22T14:14:12;98550.23;;;20.19;38.07
33286;BME280;19656;50.096;20.014;2023-03-22T14:19:21;98550.56;;;19.76;38.50
33286;BME280;19656;50.096;20.014;2023-03-22T14:24:26;98550.27;;;19.35;39.47
33286;BME280;19656;50.096;20.014;2023-03-22T14:29:45;98552.95;;;19.06;40.07
33286;BME280;19656;50.096;20.014;2023-03-22T14:34:50;98550.64;;;18.85;40.36
33286;BME280;19656;50.096;20.014;2023-03-22T14:39:57;98544.39;;;18.69;40.94
33286;BME280;19656;50.096;20.014;2023-03-22T14:45:06;98542.50;;;18.62;41.10
33286;BME280;19656;50.096;20.014;2023-03-22T14:50:14;98534.88;;;18.56;40.89
33286;BME280;19656;50.096;20.014;2023-03-22T14:55:20;98534.27;;;18.43;40.98
33286;BME280;19656;50.096;20.014;2023-03-22T15:00:28;98534.67;;;18.23;41.41
33286;BME280;19656;50.096;20.014;2023-03-22T15:05:34;98537.42;;;18.23;43.07
33286;BME280;19656;50.096;20.014;2023-03-22T15:10:39;98535.28;;;18.25;42.38
33286;BME280;19656;50.096;20.014;2023-03-22T15:15:43;98534.30;;;18.24;42.77
33286;BME280;19656;50.096;20.014;2023-03-22T15:20:48;98536.77;;;18.26;43.82
33286;BME280;19656;50.096;20.014;2023-03-22T15:25:56;98539.27;;;18.24;43.30
33286;BME280;19656;50.096;20.014;2023-03-22T15:31:02;98540.23;;;18.24;43.62
33286;BME280;19656;50.096;20.014;2023-03-22T15:36:05;98532.61;;;18.23;44.22
33286;BME280;19656;50.096;20.014;2023-03-22T15:41:26;98524.91;;;18.24;44.56
33286;BME280;19656;50.096;20.014;2023-03-22T15:46:30;98526.58;;;18.27;44.50
33286;BME280;19656;50.096;20.014;2023-03-22T15:51:47;98526.16;;;18.26;43.34
33286;BME280;19656;50.096;20.014;2023-03-22T15:56:49;98517.89;;;18.18;43.13
33286;BME280;19656;50.096;20.014;2023-03-22T16:01:56;98515.62;;;18.20;45.59
33286;BME280;19656;50.096;20.014;2023-03-22T16:06:59;98515.49;;;18.25;45.12
33286;BME280;19656;50.096;20.014;2023-03-22T16:12:02;98519.01;;;18.28;45.16
33286;BME280;19656;50.096;20.014;2023-03-22T16:17:05;98524.58;;;18.33;47.28
33286;BME280;19656;50.096;20.014;2023-03-22T16:22:12;98522.16;;;18.39;45.89
33286;BME280;19656;50.096;20.014;2023-03-22T16:27:18;98520.52;;;18.40;47.30
33286;BME280;19656;50.096;20.014;2023-03-22T16:32:26;98517.49;;;18.46;47.40
33286;BME280;19656;50.096;20.014;2023-03-22T16:37:28;98517.92;;;18.50;47.33
33286;BME280;19656;50.096;20.014;2023-03-22T16:42:31;98523.98;;;18.49;47.20
33286;BME280;19656;50.096;20.014;2023-03-22T16:47:33;98529.91;;;18.26;45.61
33286;BME280;19656;50.096;20.014;2023-03-22T16:52:35;98530.02;;;17.97;45.48
33286;BME280;19656;50.096;20.014;2023-03-22T16:57:38;98528.80;;;17.69;45.79
33286;BME280;19656;50.096;20.014;2023-03-22T17:02:40;98531.41;;;17.43;46.10
33286;BME280;19656;50.096;20.014;2023-03-22T17:07:44;98535.80;;;17.22;46.39
33286;BME280;19656;50.096;20.014;2023-03-22T17:12:48;98542.70;;;16.99;46.81
33286;BME280;19656;50.096;20.014;2023-03-22T17:17:50;98537.06;;;16.81;47.06
33286;BME280;19656;50.096;20.014;2023-03-22T17:22:54;98539.98;;;16.67;47.48
33286;BME280;19656;50.096;20.014;2023-03-22T17:27:57;98541.02;;;16.52;47.93
33286;BME280;19656;50.096;20.014;2023-03-22T17:33:03;98541.81;;;16.32;48.30
33286;BME280;19656;50.096;20.014;2023-03-22T17:44:25;98542.04;;;15.90;49.96
33286;BME280;19656;50.096;20.014;2023-03-22T17:49:31;98538.02;;;15.75;50.42
33286;BME280;19656;50.096;20.014;2023-03-22T17:54:34;98550.00;;;15.63;50.88
33286;BME280;19656;50.096;20.014;2023-03-22T17:59:37;98550.95;;;15.48;51.18
33286;BME280;19656;50.096;20.014;2023-03-22T18:04:41;98556.41;;;15.25;51.46
33286;BME280;19656;50.096;20.014;2023-03-22T18:09:44;98556.47;;;15.13;51.83
33286;BME280;19656;50.096;20.014;2023-03-22T18:14:46;98564.44;;;15.07;52.27
33286;BME280;19656;50.096;20.014;2023-03-22T18:19:48;98564.85;;;15.01;52.81
33286;BME280;19656;50.096;20.014;2023-03-22T18:24:52;98565.33;;;14.93;53.22
33286;BME280;19656;50.096;20.014;2023-03-22T18:29:55;98564.45;;;14.84;53.11
33286;BME280;19656;50.096;20.014;2023-03-22T18:34:57;98564.10;;;14.78;53.35
33286;BME280;19656;50.096;20.014;2023-03-22T18:40:00;98561.76;;;14.73;53.79
33286;BME280;19656;50.096;20.014;2023-03-22T18:45:08;98557.32;;;14.64;54.08
33286;BME280;19656;50.096;20.014;2023-03-22T18:50:12;98561.17;;;14.53;54.26
33286;BME280;19656;50.096;20.014;2023-03-22T18:55:14;98561.95;;;14.45;54.42
33286;BME280;19656;50.096;20.014;2023-03-22T19:00:17;98567.56;;;14.38;54.59
33286;BME280;19656;50.096;20.014;2023-03-22T19:05:21;98570.05;;;14.29;54.78
33286;BME280;19656;50.096;20.014;2023-03-22T19:10:23;98570.98;;;14.21;55.01
33286;BME280;19656;50.096;20.014;2023-03-22T19:15:26;98567.89;;;14.11;55.69
33286;BME280;19656;50.096;20.014;2023-03-22T19:20:28;98571.42;;;13.99;56.11
33286;BME280;19656;50.096;20.014;2023-03-22T19:25:30;98575.02;;;13.90;56.28
33286;BME280;19656;50.096;20.014;2023-03-22T19:30:34;98574.77;;;13.84;55.99
33286;BME280;19656;50.096;20.014;2023-03-22T19:35:46;98576.02;;;13.80;56.16
33286;BME280;19656;50.096;20.014;2023-03-22T19:40:49;98581.09;;;13.77;56.93
33286;BME280;19656;50.096;20.014;2023-03-22T19:45:52;98584.28;;;13.68;56.98
33286;BME280;19656;50.096;20.014;2023-03-22T19:50:55;98584.41;;;13.58;57.09
33286;BME280;19656;50.096;20.014;2023-03-22T19:55:58;98583.92;;;13.46;57.34
33286;BME280;19656;50.096;20.014;2023-03-22T20:01:05;98587.70;;;13.37;57.65
33286;BME280;19656;50.096;20.014;2023-03-22T20:06:11;98586.30;;;13.30;58.57
33286;BME280;19656;50.096;20.014;2023-03-22T20:11:13;98587.98;;;13.29;59.21
33286;BME280;19656;50.096;20.014;2023-03-22T20:16:17;98588.91;;;13.29;58.95
33286;BME280;19656;50.096;20.014;2023-03-22T20:21:19;98586.52;;;13.18;59.04
33286;BME280;19656;50.096;20.014;2023-03-22T20:26:23;98586.04;;;13.11;59.19
33286;BME280;19656;50.096;20.014;2023-03-22T20:31:26;98584.50;;;13.06;59.37
33286;BME280;19656;50.096;20.014;2023-03-22T20:36:29;98584.46;;;13.03;59.45
33286;BME280;19656;50.096;20.014;2023-03-22T20:41:33;98585.63;;;13.09;59.39
33286;BME280;19656;50.096;20.014;2023-03-22T20:46:35;98583.55;;;13.24;60.15
33286;BME280;19656;50.096;20.014;2023-03-22T20:51:38;98580.98;;;13.37;58.80
33286;BME280;19656;50.096;20.014;2023-03-22T20:56:40;98580.36;;;13.44;58.58
33286;BME280;19656;50.096;20.014;2023-03-22T21:01:42;98578.30;;;13.36;58.65
33286;BME280;19656;50.096;20.014;2023-03-22T21:06:45;98582.05;;;13.28;58.95
33286;BME280;19656;50.096;20.014;2023-03-22T21:11:49;98580.40;;;13.17;59.44
33286;BME280;19656;50.096;20.014;2023-03-22T21:16:52;98578.25;;;13.06;59.83
33286;BME280;19656;50.096;20.014;2023-03-22T21:21:55;98576.23;;;12.95;60.17
33286;BME280;19656;50.096;20.014;2023-03-22T21:26:57;98576.86;;;12.85;60.48
33286;BME280;19656;50.096;20.014;2023-03-22T21:31:59;98580.04;;;12.76;60.60
33286;BME280;19656;50.096;20.014;2023-03-22T21:37:02;98583.56;;;12.72;60.76
33286;BME280;19656;50.096;20.014;2023-03-22T21:42:05;98589.44;;;12.65;60.66
33286;BME280;19656;50.096;20.014;2023-03-22T21:47:07;98583.58;;;12.56;60.88
33286;BME280;19656;50.096;20.014;2023-03-22T21:52:10;98587.27;;;12.48;61.21
33286;BME280;19656;50.096;20.014;2023-03-22T21:57:12;98589.42;;;12.40;61.50
33286;BME280;19656;50.096;20.014;2023-03-22T22:02:18;98587.76;;;12.34;61.74
33286;BME280;19656;50.096;20.014;2023-03-22T22:07:20;98589.36;;;12.27;61.75
33286;BME280;19656;50.096;20.014;2023-03-22T22:12:23;98590.09;;;12.20;61.98
33286;BME280;19656;50.096;20.014;2023-03-22T22:23:51;98593.80;;;12.01;62.37
33286;BME280;19656;50.096;20.014;2023-03-22T22:28:56;98597.69;;;11.90;62.50
33286;BME280;19656;50.096;20.014;2023-03-22T22:34:00;98595.96;;;11.79;62.69
33286;BME280;19656;50.096;20.014;2023-03-22T22:39:03;98593.63;;;11.75;62.78
33286;BME280;19656;50.096;20.014;2023-03-22T22:44:06;98589.90;;;11.75;62.66
33286;BME280;19656;50.096;20.014;2023-03-22T22:49:10;98587.18;;;11.75;62.53
33286;BME280;19656;50.096;20.014;2023-03-22T22:54:17;98585.23;;;11.73;62.48
33286;BME280;19656;50.096;20.014;2023-03-22T22:59:22;98577.41;;;11.68;62.23
33286;BME280;19656;50.096;20.014;2023-03-22T23:04:25;98573.64;;;11.61;62.13
33286;BME280;19656;50.096;20.014;2023-03-22T23:09:27;98570.73;;;11.50;61.99
33286;BME280;19656;50.096;20.014;2023-03-22T23:14:30;98566.06;;;11.44;61.91
33286;BME280;19656;50.096;20.014;2023-03-22T23:19:32;98569.95;;;11.34;61.95
33286;BME280;19656;50.096;20.014;2023-03-22T23:24:39;98569.36;;;11.25;62.23
33286;BME280;19656;50.096;20.014;2023-03-22T23:29:44;98571.13;;;11.18;62.26
33286;BME280;19656;50.096;20.014;2023-03-22T23:34:50;98569.96;;;11.09;62.32
33286;BME280;19656;50.096;20.014;2023-03-22T23:39:53;98572.29;;;11.04;62.61
33286;BME280;19656;50.096;20.014;2023-03-22T23:44:56;98572.20;;;11.00;62.64
33286;BME280;19656;50.096;20.014;2023-03-22T23:49:58;98568.84;;;10.96;62.89
33286;BME280;19656;50.096;20.014;2023-03-22T23:55:01;98568.36;;;10.92;63.00
